Time;durP1;ratioP1;P1;durP2;ratioP2;P2;SDS_P1;SDS_P2;PMS_P1;PMS_P2;Temp;Humidity;BMP_temperature;BMP_pressure;BME280_temperature;BME280_humidity;BME280_pressure;Samples;Min_cycle;Max_cycle;Signal;HPM_P1;HPM_P2
2022/07/16 00:02:21;;;;;;;1.20;1.20;;;25.90;47.00;;;;;;5085386;28;20044;-61
2022/07/16 00:04:48;;;;;;;0.88;0.88;;;25.90;47.00;;;;;;5084281;28;20044;-62
2022/07/16 00:07:15;;;;;;;0.90;0.90;;;25.90;47.00;;;;;;5085555;28;20059;-61
2022/07/16 00:09:42;;;;;;;1.25;0.90;;;25.90;47.00;;;;;;5084754;28;20191;-61
2022/07/16 00:12:09;;;;;;;0.90;0.90;;;25.80;46.90;;;;;;5080673;28;20101;-62
2022/07/16 00:14:37;;;;;;;1.02;1.02;;;25.80;46.90;;;;;;5085644;28;20044;-61
2022/07/16 00:17:04;;;;;;;1.05;1.05;;;25.90;47.00;;;;;;5086005;28;20040;-61
2022/07/16 00:19:31;;;;;;;0.80;0.80;;;25.80;46.90;;;;;;5086922;28;20539;-61
2022/07/16 00:21:59;;;;;;;1.00;1.00;;;25.90;47.00;;;;;;5086278;28;20079;-61
2022/07/16 00:24:26;;;;;;;1.20;1.10;;;25.90;47.10;;;;;;5085938;28;20108;-61
2022/07/16 00:26:54;;;;;;;0.98;0.98;;;25.90;47.10;;;;;;5085225;28;20044;-61
2022/07/16 00:29:21;;;;;;;0.75;0.75;;;25.80;47.00;;;;;;5085397;28;20475;-61
2022/07/16 00:31:50;;;;;;;1.15;1.13;;;25.80;47.00;;;;;;5085314;28;20048;-61
2022/07/16 00:34:18;;;;;;;1.00;0.95;;;25.80;47.00;;;;;;5085143;28;20059;-62
2022/07/16 00:36:45;;;;;;;1.63;1.52;;;25.80;47.10;;;;;;5085512;28;20049;-61
2022/07/16 00:39:15;;;;;;;0.80;0.75;;;25.80;47.10;;;;;;5085129;28;20086;-61
2022/07/16 00:41:43;;;;;;;1.03;1.03;;;25.80;47.10;;;;;;5084975;28;20094;-61
2022/07/16 00:44:14;;;;;;;1.02;1.02;;;25.80;47.10;;;;;;5080996;28;20298;-61
2022/07/16 00:46:43;;;;;;;0.90;0.90;;;25.80;47.10;;;;;;5084347;28;20048;-61
2022/07/16 00:49:10;;;;;;;1.00;1.00;;;25.80;47.10;;;;;;5086227;28;20052;-62
2022/07/16 00:51:42;;;;;;;0.90;0.90;;;25.70;47.10;;;;;;5086182;28;20048;-62
2022/07/16 00:54:10;;;;;;;0.93;0.93;;;25.70;47.10;;;;;;5085115;28;20093;-61
2022/07/16 00:56:38;;;;;;;0.60;0.60;;;25.70;47.10;;;;;;5086435;28;20044;-61
2022/07/16 00:59:06;;;;;;;1.13;1.10;;;25.80;47.20;;;;;;5084387;28;20040;-61
2022/07/16 01:01:33;;;;;;;1.00;1.00;;;25.70;47.20;;;;;;5086276;28;20114;-61
2022/07/16 01:04:04;;;;;;;0.60;0.60;;;25.80;47.20;;;;;;5085671;28;20098;-61
2022/07/16 01:06:32;;;;;;;0.80;0.80;;;25.80;47.30;;;;;;5089779;28;20240;-61
2022/07/16 01:09:00;;;;;;;1.58;0.90;;;25.80;47.30;;;;;;5089790;28;20048;-61
2022/07/16 01:11:30;;;;;;;0.80;0.80;;;25.70;47.20;;;;;;5090078;28;20044;-61
2022/07/16 01:13:58;;;;;;;0.80;0.80;;;25.70;47.20;;;;;;5089394;28;20495;-61
2022/07/16 01:16:26;;;;;;;0.80;0.80;;;25.80;47.30;;;;;;5084847;28;20040;-61
2022/07/16 01:18:53;;;;;;;1.17;0.80;;;25.70;47.20;;;;;;5088564;28;20052;-61
2022/07/16 01:21:20;;;;;;;0.77;0.77;;;25.70;47.20;;;;;;5089850;28;20462;-62
2022/07/16 01:23:49;;;;;;;1.10;1.00;;;25.70;47.20;;;;;;5089029;28;20048;-61
2022/07/16 01:26:16;;;;;;;0.93;0.93;;;25.70;47.20;;;;;;5089363;28;20051;-61
2022/07/16 01:28:44;;;;;;;0.70;0.70;;;25.80;47.30;;;;;;5088971;28;20169;-61
2022/07/16 01:31:12;;;;;;;0.80;0.80;;;25.70;47.30;;;;;;5089951;28;20451;-61
2022/07/16 01:33:41;;;;;;;2.08;0.90;;;25.70;47.20;;;;;;5088204;28;20044;-61
2022/07/16 01:36:14;;;;;;;0.90;0.90;;;25.80;47.30;;;;;;5089194;28;20044;-61
2022/07/16 01:38:44;;;;;;;0.60;0.60;;;25.70;47.20;;;;;;5089086;28;20177;-62
2022/07/16 01:41:13;;;;;;;0.90;0.90;;;25.70;47.20;;;;;;5088108;28;20048;-61
2022/07/16 01:43:40;;;;;;;0.80;0.80;;;25.70;47.30;;;;;;5087765;28;20496;-61
2022/07/16 01:46:08;;;;;;;1.00;0.80;;;25.70;47.20;;;;;;5085939;28;20217;-62
2022/07/16 01:48:35;;;;;;;0.80;0.80;;;25.70;47.20;;;;;;5084327;28;20040;-61
2022/07/16 01:51:02;;;;;;;1.27;1.08;;;25.70;47.30;;;;;;5087893;28;20467;-61
2022/07/16 01:53:30;;;;;;;0.90;0.90;;;25.70;47.20;;;;;;5087787;28;20044;-64
2022/07/16 01:55:59;;;;;;;0.65;0.65;;;25.70;47.30;;;;;;5087827;28;20036;-61
2022/07/16 01:58:33;;;;;;;1.63;0.77;;;25.70;47.30;;;;;;5087271;28;20055;-61
2022/07/16 02:01:00;;;;;;;0.95;0.80;;;25.70;47.30;;;;;;5088423;28;20075;-61
2022/07/16 02:03:27;;;;;;;0.70;0.70;;;25.70;47.30;;;;;;5087307;28;20470;-62
2022/07/16 02:05:55;;;;;;;0.80;0.80;;;25.70;47.30;;;;;;5087615;28;20389;-61
2022/07/16 02:08:22;;;;;;;1.00;1.00;;;25.70;47.30;;;;;;5087085;28;20052;-61
2022/07/16 02:10:49;;;;;;;1.02;1.02;;;25.70;47.40;;;;;;5087580;28;20044;-62
2022/07/16 02:13:16;;;;;;;1.17;0.95;;;25.70;47.30;;;;;;5087271;28;20469;-61
2022/07/16 02:15:43;;;;;;;0.65;0.65;;;25.70;47.30;;;;;;5087305;28;20097;-61
2022/07/16 02:18:10;;;;;;;1.10;1.00;;;25.70;47.40;;;;;;5082141;28;20066;-61
2022/07/16 02:20:38;;;;;;;0.70;0.70;;;25.70;47.40;;;;;;5087089;28;20113;-61
2022/07/16 02:23:05;;;;;;;0.73;0.73;;;25.70;47.90;;;;;;5087295;28;20176;-61
2022/07/16 02:25:32;;;;;;;0.80;0.80;;;25.70;47.40;;;;;;5087519;28;20110;-61
2022/07/16 02:28:06;;;;;;;0.88;0.88;;;25.70;47.40;;;;;;5086728;28;20486;-61
2022/07/16 02:30:36;;;;;;;0.70;0.70;;;25.70;47.40;;;;;;5086888;28;20105;-62
2022/07/16 02:33:04;;;;;;;0.70;0.70;;;25.70;47.50;;;;;;5086019;28;20044;-61
2022/07/16 02:35:32;;;;;;;0.98;0.90;;;25.70;47.40;;;;;;5086651;28;20044;-64
2022/07/16 02:38:00;;;;;;;0.75;0.75;;;25.60;47.40;;;;;;5087082;28;20083;-61
2022/07/16 02:40:28;;;;;;;0.73;0.73;;;25.70;47.50;;;;;;5086998;28;20044;-61
2022/07/16 02:42:56;;;;;;;0.85;0.77;;;25.70;47.50;;;;;;5086900;28;20070;-61
2022/07/16 02:45:23;;;;;;;0.80;0.80;;;25.70;47.50;;;;;;5085143;28;20428;-61
2022/07/16 02:47:50;;;;;;;1.05;1.02;;;25.70;47.50;;;;;;5086493;28;20126;-61
2022/07/16 02:50:18;;;;;;;0.70;0.70;;;25.70;47.50;;;;;;5081815;28;20084;-61
2022/07/16 02:52:46;;;;;;;0.90;0.70;;;25.70;47.50;;;;;;5086887;28;20040;-62
2022/07/16 02:55:13;;;;;;;0.70;0.70;;;25.70;47.50;;;;;;5086921;28;20447;-61
2022/07/16 02:57:40;;;;;;;0.70;0.70;;;25.60;47.40;;;;;;5085248;28;20063;-61
2022/07/16 03:00:09;;;;;;;0.80;0.80;;;25.70;47.50;;;;;;5085000;28;20044;-61
2022/07/16 03:02:37;;;;;;;0.73;0.73;;;25.70;47.50;;;;;;5086397;28;20048;-61
2022/07/16 03:05:05;;;;;;;2.97;0.90;;;25.70;47.50;;;;;;5086408;28;20052;-61
2022/07/16 03:07:32;;;;;;;0.70;0.70;;;25.70;47.50;;;;;;5086589;28;20459;-61
2022/07/16 03:09:59;;;;;;;0.75;0.75;;;25.70;47.50;;;;;;5085828;28;20091;-61
2022/07/16 03:12:27;;;;;;;0.70;0.70;;;25.70;47.60;;;;;;5085033;28;20044;-63
2022/07/16 03:14:54;;;;;;;1.00;0.70;;;25.70;47.50;;;;;;5086226;28;20039;-61
2022/07/16 03:17:21;;;;;;;0.90;0.90;;;25.70;47.50;;;;;;5085089;28;20086;-61
2022/07/16 03:19:48;;;;;;;0.70;0.70;;;25.70;47.40;;;;;;5086475;28;20044;-61
2022/07/16 03:22:17;;;;;;;0.98;0.93;;;25.70;47.50;;;;;;5081491;28;20044;-61
2022/07/16 03:24:45;;;;;;;0.97;0.90;;;25.70;47.50;;;;;;5085691;28;20076;-61
2022/07/16 03:27:12;;;;;;;0.68;0.68;;;25.70;47.50;;;;;;5086289;28;20256;-61
2022/07/16 03:29:40;;;;;;;0.60;0.60;;;25.70;47.50;;;;;;5085149;28;20184;-61
2022/07/16 03:32:07;;;;;;;0.82;0.80;;;25.70;47.50;;;;;;5086166;28;20048;-60
2022/07/16 03:34:35;;;;;;;0.77;0.77;;;25.70;47.50;;;;;;5085896;28;20392;-61
2022/07/16 03:37:02;;;;;;;0.80;0.80;;;25.70;47.50;;;;;;5086227;28;20052;-60
2022/07/16 03:39:29;;;;;;;0.80;0.80;;;25.70;47.50;;;;;;5086054;28;20402;-61
2022/07/16 03:41:57;;;;;;;1.17;1.00;;;25.70;47.50;;;;;;5085768;28;20101;-61
2022/07/16 03:44:24;;;;;;;0.65;0.60;;;25.70;47.50;;;;;;5086037;28;20496;-61
2022/07/16 03:46:51;;;;;;;0.82;0.82;;;25.70;47.50;;;;;;5085630;28;20670;-61
2022/07/16 03:49:18;;;;;;;0.70;0.70;;;25.70;48.10;;;;;;5084511;28;20052;-61
2022/07/16 03:51:45;;;;;;;0.52;0.52;;;25.70;47.50;;;;;;5085092;28;20400;-61
2022/07/16 03:54:13;;;;;;;0.80;0.80;;;25.70;47.60;;;;;;5081398;28;20105;-61
2022/07/16 03:56:40;;;;;;;0.50;0.50;;;25.70;47.50;;;;;;5085674;28;20048;-61
2022/07/16 03:59:10;;;;;;;0.70;0.70;;;25.70;47.60;;;;;;5084092;28;20565;-61
2022/07/16 04:01:38;;;;;;;0.90;0.90;;;25.70;47.50;;;;;;5085855;28;20180;-61
2022/07/16 04:04:05;;;;;;;1.10;1.00;;;25.70;47.50;;;;;;5085010;28;20036;-61
2022/07/16 04:06:33;;;;;;;0.68;0.68;;;25.70;47.50;;;;;;5085172;28;20492;-61
2022/07/16 04:09:00;;;;;;;0.70;0.70;;;25.70;47.50;;;;;;5086031;28;20087;-61
2022/07/16 04:11:28;;;;;;;0.73;0.73;;;25.70;48.10;;;;;;5085244;28;20626;-61
2022/07/16 04:13:55;;;;;;;0.82;0.82;;;25.70;48.00;;;;;;5085154;28;20048;-61
2022/07/16 04:16:22;;;;;;;0.50;0.50;;;25.70;47.50;;;;;;5085320;28;20118;-61
2022/07/16 04:18:50;;;;;;;0.95;0.73;;;25.70;47.50;;;;;;5083892;28;20124;-61
2022/07/16 04:21:17;;;;;;;0.68;0.68;;;25.70;47.50;;;;;;5085239;28;20040;-60
2022/07/16 04:23:45;;;;;;;0.75;0.70;;;25.70;47.50;;;;;;5083291;28;20047;-61
2022/07/16 04:26:13;;;;;;;0.50;0.50;;;25.70;47.50;;;;;;5082117;28;20488;-61
2022/07/16 04:28:40;;;;;;;3.38;1.00;;;25.70;47.40;;;;;;5083889;28;20714;-61
2022/07/16 04:31:07;;;;;;;0.77;0.60;;;25.70;47.40;;;;;;5084773;28;20052;-61
2022/07/16 04:33:34;;;;;;;0.82;0.82;;;25.70;47.40;;;;;;5083675;28;20109;-61
2022/07/16 04:36:02;;;;;;;0.60;0.60;;;25.70;47.30;;;;;;5085213;28;20036;-61
2022/07/16 04:38:30;;;;;;;0.60;0.60;;;25.80;47.40;;;;;;5085060;28;20698;-61
2022/07/16 04:40:57;;;;;;;0.63;0.63;;;25.70;47.30;;;;;;5069545;28;20047;-61
2022/07/16 04:43:24;;;;;;;0.57;0.57;;;25.80;47.30;;;;;;5089390;28;20044;-61
2022/07/16 04:45:51;;;;;;;0.70;0.70;;;25.80;47.30;;;;;;5088972;28;20048;-61
2022/07/16 04:48:19;;;;;;;0.60;0.60;;;25.80;47.20;;;;;;5089190;28;20536;-61
2022/07/16 04:50:46;;;;;;;3.30;0.63;;;25.80;47.20;;;;;;5088973;28;20550;-61
2022/07/16 04:53:13;;;;;;;1.05;0.90;;;25.90;47.20;;;;;;5087641;28;20133;-61
2022/07/16 04:55:40;;;;;;;0.70;0.70;;;25.90;47.20;;;;;;5082980;28;20047;-61
2022/07/16 04:58:08;;;;;;;1.67;0.70;;;25.90;47.10;;;;;;5088894;28;20040;-61
2022/07/16 05:00:35;;;;;;;0.55;0.55;;;25.90;47.00;;;;;;5088776;28;20121;-61
2022/07/16 05:03:03;;;;;;;0.50;0.50;;;26.00;47.10;;;;;;5088573;28;20060;-61
2022/07/16 05:05:33;;;;;;;0.68;0.68;;;26.00;47.00;;;;;;5088589;28;20056;-61
2022/07/16 05:08:01;;;;;;;;;;;26.00;47.00;;;;;;5088064;28;20044;-61
2022/07/16 05:10:29;;;;;;;0.70;0.70;;;25.90;47.10;;;;;;5088846;28;19920;-63
2022/07/16 05:12:57;;;;;;;0.70;0.70;;;25.90;47.20;;;;;;5088417;28;20051;-61
2022/07/16 05:15:26;;;;;;;0.82;0.75;;;25.90;47.30;;;;;;5088585;28;20071;-61
2022/07/16 05:17:53;;;;;;;0.75;0.73;;;25.70;47.60;;;;;;5088313;28;20083;-61
2022/07/16 05:20:21;;;;;;;0.80;0.80;;;25.60;48.10;;;;;;5088491;28;20084;-61
2022/07/16 05:22:49;;;;;;;0.80;0.80;;;25.30;48.60;;;;;;5087065;28;20063;-61
2022/07/16 05:25:16;;;;;;;0.70;0.70;;;25.10;49.10;;;;;;5088285;28;20052;-61
2022/07/16 05:27:43;;;;;;;1.23;1.13;;;24.70;49.00;;;;;;5083559;28;20048;-61
2022/07/16 05:30:11;;;;;;;1.10;0.93;;;24.40;48.80;;;;;;5088070;28;20377;-61
2022/07/16 05:32:41;;;;;;;0.90;0.90;;;24.10;48.70;;;;;;5088205;28;20040;-61
2022/07/16 05:35:10;;;;;;;0.90;0.90;;;23.70;49.20;;;;;;5088180;28;20075;-61
2022/07/16 05:37:37;;;;;;;1.17;1.17;;;23.40;48.80;;;;;;5088113;28;20565;-62
2022/07/16 05:40:06;;;;;;;0.88;0.88;;;23.00;48.60;;;;;;5080076;28;20043;-61
2022/07/16 05:42:33;;;;;;;0.98;0.98;;;22.70;48.70;;;;;;5080534;28;20094;-61
2022/07/16 05:45:00;;;;;;;1.95;1.10;;;22.40;48.80;;;;;;5081864;28;20283;-61
2022/07/16 05:47:28;;;;;;;1.40;1.27;;;22.10;49.20;;;;;;5087354;28;20617;-61
2022/07/16 05:49:55;;;;;;;0.98;0.98;;;21.90;49.50;;;;;;5086998;28;20048;-63
2022/07/16 05:52:22;;;;;;;1.20;1.10;;;21.60;50.10;;;;;;5080798;28;20066;-61
2022/07/16 05:54:49;;;;;;;1.05;0.88;;;21.50;50.60;;;;;;5067421;28;20075;-60
2022/07/16 05:57:16;;;;;;;0.88;0.88;;;21.30;50.80;;;;;;5079713;28;20095;-61
2022/07/16 05:59:44;;;;;;;1.50;1.40;;;21.20;51.40;;;;;;5082246;28;20497;-63
2022/07/16 06:02:11;;;;;;;1.20;1.20;;;21.10;52.10;;;;;;5087238;28;20044;-63
2022/07/16 06:04:38;;;;;;;1.13;1.10;;;21.00;52.10;;;;;;5085657;28;20110;-63
2022/07/16 06:07:06;;;;;;;1.25;1.13;;;20.90;51.80;;;;;;5085813;28;20052;-65
2022/07/16 06:09:33;;;;;;;1.60;1.40;;;20.80;51.70;;;;;;5084485;28;20078;-61
2022/07/16 06:12:00;;;;;;;1.40;1.27;;;20.70;51.60;;;;;;5084204;28;20048;-61
2022/07/16 06:14:27;;;;;;;1.05;0.77;;;20.70;51.60;;;;;;5080977;28;20524;-61
2022/07/16 06:16:54;;;;;;;1.23;1.10;;;20.60;51.90;;;;;;5067453;28;20136;-61
2022/07/16 06:19:22;;;;;;;1.20;1.10;;;20.60;52.50;;;;;;5076229;28;20052;-61
2022/07/16 06:21:49;;;;;;;1.17;1.08;;;20.50;52.70;;;;;;5087105;28;20056;-61
2022/07/16 06:24:16;;;;;;;1.40;1.30;;;20.50;52.20;;;;;;5087166;28;20103;-61
2022/07/16 06:26:47;;;;;;;1.33;1.20;;;20.40;51.80;;;;;;5087376;28;20084;-61
2022/07/16 06:29:15;;;;;;;1.23;1.13;;;20.40;52.10;;;;;;5085958;28;20052;-61
2022/07/16 06:31:43;;;;;;;1.67;1.20;;;20.30;52.50;;;;;;5081616;28;20079;-61
2022/07/16 06:34:10;;;;;;;1.52;1.20;;;20.30;52.50;;;;;;5085764;28;20044;-64
2022/07/16 06:36:38;;;;;;;1.20;1.10;;;20.30;52.40;;;;;;5087299;28;20100;-61
2022/07/16 06:39:05;;;;;;;2.08;1.27;;;20.20;53.00;;;;;;5085746;28;20044;-61
2022/07/16 06:41:34;;;;;;;1.33;1.17;;;20.20;53.60;;;;;;5085453;28;20390;-61
2022/07/16 06:44:01;;;;;;;1.15;1.13;;;20.20;53.10;;;;;;5087026;28;20044;-61
2022/07/16 06:46:29;;;;;;;1.20;1.10;;;20.20;52.80;;;;;;5086179;28;20048;-61
2022/07/16 06:48:56;;;;;;;1.48;1.30;;;20.10;52.60;;;;;;5087200;28;20382;-61
2022/07/16 06:51:23;;;;;;;2.22;1.50;;;20.10;52.70;;;;;;5086833;28;20723;-61
2022/07/16 06:53:50;;;;;;;1.42;1.33;;;20.00;52.90;;;;;;5086444;28;20075;-61
2022/07/16 06:56:17;;;;;;;1.40;1.30;;;20.00;53.00;;;;;;5087132;28;20411;-61
2022/07/16 06:58:45;;;;;;;1.30;1.20;;;19.90;53.50;;;;;;5085964;28;20048;-61
2022/07/16 07:01:12;;;;;;;1.42;1.33;;;19.90;53.70;;;;;;5085136;28;20446;-61
2022/07/16 07:03:40;;;;;;;1.65;1.17;;;19.90;53.80;;;;;;5080317;28;20229;-62
2022/07/16 07:06:08;;;;;;;1.95;1.38;;;19.80;53.80;;;;;;5084152;28;20047;-62
2022/07/16 07:08:35;;;;;;;2.03;1.60;;;19.80;53.70;;;;;;5083181;28;20055;-62
2022/07/16 07:11:02;;;;;;;2.33;1.30;;;19.80;53.80;;;;;;5085483;28;20735;-61
2022/07/16 07:13:30;;;;;;;1.50;1.40;;;19.80;54.10;;;;;;5084775;28;20048;-62
2022/07/16 07:15:58;;;;;;;2.42;1.35;;;19.70;53.90;;;;;;5082830;28;20074;-62
2022/07/16 07:18:26;;;;;;;3.63;1.60;;;19.70;54.20;;;;;;5083823;28;20040;-62
2022/07/16 07:20:56;;;;;;;2.15;1.95;;;19.70;54.30;;;;;;5085624;28;20701;-62
2022/07/16 07:23:23;;;;;;;1.65;1.42;;;19.60;54.60;;;;;;5085973;28;20538;-62
2022/07/16 07:25:51;;;;;;;1.63;1.45;;;19.60;54.60;;;;;;5085666;28;20048;-62
2022/07/16 07:28:18;;;;;;;2.85;1.48;;;19.60;54.90;;;;;;5083772;28;20577;-62
2022/07/16 07:30:45;;;;;;;2.47;1.73;;;19.60;54.90;;;;;;5086376;28;20074;-61
2022/07/16 07:33:13;;;;;;;1.52;1.42;;;19.60;55.10;;;;;;5081667;28;20565;-61
2022/07/16 07:35:41;;;;;;;4.35;1.85;;;19.60;55.10;;;;;;5079927;28;20051;-61
2022/07/16 07:38:08;;;;;;;1.40;1.30;;;19.70;55.10;;;;;;5084765;28;20092;-61
2022/07/16 07:40:35;;;;;;;1.70;1.60;;;19.60;55.50;;;;;;5084788;28;20054;-61
2022/07/16 07:43:04;;;;;;;3.58;1.60;;;19.70;55.50;;;;;;5084575;28;20290;-62
2022/07/16 07:45:31;;;;;;;1.60;1.20;;;19.70;55.50;;;;;;5085350;28;20036;-61
2022/07/16 07:47:58;;;;;;;2.30;1.80;;;19.60;55.40;;;;;;5086085;28;20071;-61
2022/07/16 07:50:26;;;;;;;2.92;1.85;;;19.60;55.60;;;;;;5085346;28;20508;-61
2022/07/16 07:52:53;;;;;;;1.42;1.17;;;19.60;55.70;;;;;;5084210;28;20048;-61
2022/07/16 07:55:21;;;;;;;1.77;1.60;;;19.50;56.00;;;;;;5085210;28;20251;-61
2022/07/16 07:57:53;;;;;;;1.73;1.48;;;19.60;56.10;;;;;;5083632;28;20408;-61
2022/07/16 08:00:20;;;;;;;1.20;1.10;;;19.60;56.10;;;;;;5085280;28;20040;-62
2022/07/16 08:02:48;;;;;;;2.58;1.45;;;19.60;56.20;;;;;;5082265;28;20281;-61
2022/07/16 08:05:16;;;;;;;1.77;1.40;;;19.60;56.40;;;;;;5079157;28;20515;-61
2022/07/16 08:07:44;;;;;;;1.70;1.33;;;19.60;56.40;;;;;;5085947;28;20044;-61
2022/07/16 08:10:11;;;;;;;1.67;1.27;;;19.60;56.20;;;;;;5084799;28;20135;-61
2022/07/16 08:12:40;;;;;;;2.92;1.83;;;19.60;56.50;;;;;;5084644;28;20093;-61
2022/07/16 08:15:08;;;;;;;1.70;1.60;;;19.60;56.50;;;;;;5084732;28;20479;-61
2022/07/16 08:17:38;;;;;;;1.88;1.60;;;19.60;56.40;;;;;;5085044;28;20059;-61
2022/07/16 08:20:08;;;;;;;1.75;1.40;;;19.60;56.30;;;;;;5085698;28;20128;-61
2022/07/16 08:22:35;;;;;;;1.88;1.75;;;19.70;56.20;;;;;;5083344;28;20051;-61
2022/07/16 08:27:51;;;;;;;1.60;1.45;;;19.70;56.30;;;;;;5064757;28;20598;-61
2022/07/16 08:30:19;;;;;;;2.25;1.98;;;19.70;56.30;;;;;;5063529;28;20052;-61
2022/07/16 08:32:46;;;;;;;2.92;1.60;;;19.70;56.30;;;;;;5065320;28;20106;-61
2022/07/16 08:35:13;;;;;;;2.47;1.42;;;19.70;56.50;;;;;;5063696;28;20114;-61
2022/07/16 08:37:43;;;;;;;2.83;1.60;;;19.70;56.50;;;;;;5060337;28;20083;-61
2022/07/16 08:40:14;;;;;;;1.98;1.88;;;19.60;56.30;;;;;;5063438;28;20075;-61
2022/07/16 08:42:41;;;;;;;1.40;1.30;;;19.70;56.80;;;;;;5064913;28;20079;-61
2022/07/16 08:45:10;;;;;;;1.80;1.55;;;19.70;56.60;;;;;;5064834;28;20078;-61
2022/07/16 08:47:38;;;;;;;3.45;1.50;;;19.60;56.70;;;;;;5064602;28;20133;-61
2022/07/16 08:50:09;;;;;;;1.70;1.55;;;19.70;56.90;;;;;;5065049;28;20529;-61
2022/07/16 08:52:41;;;;;;;;;;;19.70;56.80;;;;;;5065347;28;20497;-61
2022/07/16 08:55:09;;;;;;;1.40;1.30;;;19.70;56.50;;;;;;5064451;28;19974;-61
2022/07/16 08:57:37;;;;;;;1.70;1.60;;;19.70;56.90;;;;;;5064979;28;20080;-61
2022/07/16 09:00:09;;;;;;;1.50;1.40;;;19.80;56.70;;;;;;5064756;28;20477;-61
2022/07/16 09:02:38;;;;;;;3.65;2.25;;;19.80;56.80;;;;;;5064649;28;20238;-62
2022/07/16 09:05:05;;;;;;;1.50;1.40;;;19.80;56.60;;;;;;5062941;28;20048;-61
2022/07/16 09:07:33;;;;;;;2.83;1.67;;;19.80;56.60;;;;;;5063395;28;20045;-61
2022/07/16 09:10:01;;;;;;;2.10;1.90;;;19.80;56.60;;;;;;5060812;28;20045;-61
2022/07/16 09:12:42;;;;;;;1.30;1.20;;;19.80;56.90;;;;;;5064571;28;20048;-61
2022/07/16 09:15:31;;;;;;;2.15;1.70;;;19.80;56.70;;;;;;5064689;28;20052;-61
2022/07/16 09:18:19;;;;;;;1.45;1.33;;;19.80;56.90;;;;;;5064832;28;20056;-61
2022/07/16 09:20:58;;;;;;;1.77;1.65;;;19.80;56.90;;;;;;5063049;28;20049;-61
2022/07/16 09:23:29;;;;;;;2.13;1.73;;;19.80;56.90;;;;;;5064831;28;20055;-62
2022/07/16 09:26:07;;;;;;;1.95;1.60;;;19.80;57.20;;;;;;5064663;28;20477;-61
2022/07/16 09:28:48;;;;;;;2.10;1.47;;;19.90;57.20;;;;;;5065888;28;20523;-61
2022/07/16 09:31:37;;;;;;;2.17;1.60;;;19.90;57.00;;;;;;5068120;28;20317;-61
2022/07/16 09:34:13;;;;;;;2.13;1.80;;;19.90;56.90;;;;;;5068148;28;20049;-61
2022/07/16 09:36:56;;;;;;;1.92;1.58;;;20.00;56.80;;;;;;5067856;28;20429;-62
2022/07/16 09:39:23;;;;;;;1.65;1.40;;;20.00;56.70;;;;;;5068295;28;20044;-61
2022/07/16 09:41:51;;;;;;;1.50;1.35;;;20.00;56.90;;;;;;5063678;28;20049;-61
2022/07/16 09:44:21;;;;;;;2.08;1.50;;;20.00;56.80;;;;;;5067892;28;20048;-62
2022/07/16 09:47:08;;;;;;;;;;;20.00;56.80;;;;;;5066237;28;20040;-62
2022/07/16 09:49:37;;;;;;;1.77;1.60;;;20.00;56.80;;;;;;5066377;28;19927;-61
2022/07/16 09:52:08;;;;;;;1.85;1.50;;;19.90;57.20;;;;;;5067302;28;20077;-62
2022/07/16 09:54:37;;;;;;;2.05;1.55;;;20.00;57.40;;;;;;5065855;28;20528;-61
2022/07/16 09:57:13;;;;;;;1.55;1.48;;;20.10;57.30;;;;;;5066492;28;20052;-61
2022/07/16 09:59:40;;;;;;;2.65;1.98;;;20.10;57.00;;;;;;5067009;28;20098;-61
2022/07/16 10:02:29;;;;;;;2.08;1.10;;;20.10;57.00;;;;;;5072168;28;20044;-61
2022/07/16 10:04:59;;;;;;;1.83;1.73;;;20.10;56.80;;;;;;5086179;28;20054;-61
2022/07/16 10:07:32;;;;;;;1.95;1.73;;;20.10;56.50;;;;;;5087412;28;20048;-61
2022/07/16 10:09:59;;;;;;;3.00;1.98;;;20.20;56.40;;;;;;5087734;28;20439;-62
2022/07/16 10:12:29;;;;;;;3.05;1.75;;;20.10;56.10;;;;;;5083082;28;20180;-61
2022/07/16 10:14:58;;;;;;;1.70;1.58;;;20.10;56.10;;;;;;5087331;28;20234;-61
2022/07/16 10:17:34;;;;;;;1.55;1.38;;;20.00;56.10;;;;;;5086947;28;20040;-61
2022/07/16 10:20:08;;;;;;;3.50;1.63;;;20.00;55.90;;;;;;5087236;28;20457;-61
2022/07/16 10:22:44;;;;;;;2.08;1.83;;;20.00;55.70;;;;;;5087487;28;20044;-61
2022/07/16 10:25:24;;;;;;;5.40;1.60;;;19.90;56.10;;;;;;5087117;28;20101;-61
2022/07/16 10:27:53;;;;;;;2.67;1.60;;;20.00;56.20;;;;;;5087107;28;20052;-63
2022/07/16 10:30:26;;;;;;;1.48;1.38;;;20.00;55.70;;;;;;5085527;28;20135;-62
2022/07/16 10:33:16;;;;;;;2.67;1.35;;;19.90;55.50;;;;;;5087161;28;20052;-61
2022/07/16 10:35:49;;;;;;;1.58;1.45;;;19.90;55.40;;;;;;5086541;28;20135;-62
2022/07/16 10:38:27;;;;;;;2.00;1.80;;;19.80;55.30;;;;;;5086715;28;20048;-61
2022/07/16 10:41:13;;;;;;;4.43;1.63;;;19.80;55.10;;;;;;5087204;28;20079;-62
2022/07/16 10:43:41;;;;;;;1.65;1.55;;;19.70;55.00;;;;;;5082524;28;20113;-61
2022/07/16 10:46:11;;;;;;;2.25;1.85;;;19.70;55.10;;;;;;5087103;28;20048;-62
2022/07/16 10:49:18;;;;;;;2.15;1.70;;;19.60;55.00;;;;;;5086350;28;20044;-62
2022/07/16 10:52:11;;;;;;;1.50;1.40;;;19.60;55.00;;;;;;5074494;28;20106;-62
2022/07/16 10:54:40;;;;;;;2.58;1.88;;;19.60;55.00;;;;;;5086314;28;20052;-61
2022/07/16 10:57:10;;;;;;;1.50;1.40;;;19.50;55.70;;;;;;5085482;28;20052;-61
2022/07/16 10:59:42;;;;;;;2.25;1.77;;;19.50;55.90;;;;;;5086475;28;20052;-61
2022/07/16 11:02:12;;;;;;;1.80;1.70;;;19.50;55.80;;;;;;5087368;28;20071;-61
2022/07/16 11:04:42;;;;;;;1.53;1.43;;;19.60;56.20;;;;;;5086448;28;20048;-62
2022/07/16 11:07:14;;;;;;;1.63;1.52;;;19.60;56.00;;;;;;5085964;28;20045;-61
2022/07/16 11:09:43;;;;;;;1.98;1.75;;;19.60;56.40;;;;;;5086394;28;20044;-61
2022/07/16 11:12:14;;;;;;;1.45;1.35;;;19.70;56.20;;;;;;5086541;28;20484;-62
2022/07/16 11:14:44;;;;;;;2.20;1.85;;;19.60;56.10;;;;;;5084685;28;20515;-62
2022/07/16 11:17:13;;;;;;;1.98;1.88;;;19.60;56.20;;;;;;5085162;28;20055;-61
2022/07/16 11:19:43;;;;;;;2.00;1.83;;;19.70;56.30;;;;;;5085944;28;20117;-62
2022/07/16 11:22:11;;;;;;;2.67;1.65;;;19.70;56.20;;;;;;5086026;28;20108;-61
2022/07/16 11:24:51;;;;;;;1.88;1.77;;;19.70;56.10;;;;;;5086037;28;20270;-62
2022/07/16 11:27:27;;;;;;;2.00;1.70;;;19.70;56.00;;;;;;5086200;28;20040;-61
2022/07/16 11:29:56;;;;;;;2.50;1.85;;;19.70;55.70;;;;;;5085837;28;20048;-61
2022/07/16 11:32:23;;;;;;;3.42;2.00;;;19.70;56.00;;;;;;5083091;28;20075;-61
2022/07/16 11:34:51;;;;;;;1.83;1.48;;;19.70;55.60;;;;;;5075329;28;20056;-61
2022/07/16 11:37:18;;;;;;;1.98;1.70;;;19.60;55.80;;;;;;5083866;28;20071;-61
2022/07/16 11:39:45;;;;;;;1.77;1.60;;;19.70;56.00;;;;;;5085783;28;20048;-61
2022/07/16 11:42:17;;;;;;;1.70;1.60;;;19.70;55.60;;;;;;5085357;28;20071;-61
2022/07/16 11:44:45;;;;;;;1.75;1.65;;;19.70;55.50;;;;;;5083849;28;20105;-64
2022/07/16 11:47:13;;;;;;;1.92;1.73;;;19.70;55.70;;;;;;5080267;28;20056;-61
2022/07/16 11:49:42;;;;;;;2.10;1.90;;;19.60;55.70;;;;;;5081740;28;20094;-61
2022/07/16 11:52:26;;;;;;;1.73;1.63;;;19.60;55.60;;;;;;5083438;28;20109;-61
2022/07/16 11:54:58;;;;;;;1.50;1.40;;;19.60;55.40;;;;;;5084984;28;20714;-61
2022/07/16 11:57:25;;;;;;;2.78;1.70;;;19.60;55.60;;;;;;5085892;28;20498;-61
2022/07/16 11:59:54;;;;;;;1.67;1.58;;;19.60;55.70;;;;;;5085023;28;20044;-61
2022/07/16 12:02:27;;;;;;;1.60;1.50;;;19.60;55.70;;;;;;5085723;28;20099;-61
2022/07/16 12:04:59;;;;;;;2.75;2.38;;;19.60;55.90;;;;;;5085514;28;20637;-61
2022/07/16 12:07:32;;;;;;;2.45;1.60;;;19.70;55.90;;;;;;5085112;28;20113;-61
2022/07/16 12:10:03;;;;;;;2.33;2.13;;;19.60;55.70;;;;;;5085130;28;20117;-61
2022/07/16 12:12:36;;;;;;;2.00;1.80;;;19.60;55.70;;;;;;5085495;28;20048;-61
2022/07/16 12:15:06;;;;;;;3.67;2.00;;;19.60;55.70;;;;;;5084423;28;20048;-61
2022/07/16 12:17:46;;;;;;;2.40;2.00;;;19.60;55.90;;;;;;5081526;28;20110;-62
2022/07/16 12:20:25;;;;;;;4.25;1.77;;;19.70;55.80;;;;;;5080550;28;20127;-63
2022/07/16 12:23:02;;;;;;;1.95;1.85;;;19.70;55.50;;;;;;5085499;28;20276;-63
2022/07/16 12:25:36;;;;;;;2.40;1.83;;;19.70;55.90;;;;;;5085078;28;20171;-61
2022/07/16 12:28:22;;;;;;;3.63;1.92;;;19.70;56.10;;;;;;5085150;28;20054;-63
2022/07/16 12:30:56;;;;;;;2.00;1.88;;;19.70;56.00;;;;;;5084565;28;20048;-63
2022/07/16 12:33:29;;;;;;;2.22;1.90;;;19.70;56.20;;;;;;5084006;28;20179;-63
2022/07/16 12:36:06;;;;;;;2.92;2.17;;;19.80;56.40;;;;;;5083886;28;20048;-63
2022/07/16 12:38:50;;;;;;;2.17;1.80;;;19.80;56.60;;;;;;5082374;28;20052;-63
2022/07/16 12:41:24;;;;;;;2.80;2.00;;;19.80;56.70;;;;;;5085453;28;20783;-63
2022/07/16 12:43:58;;;;;;;1.80;1.70;;;19.80;58.10;;;;;;5084799;28;20063;-64
2022/07/16 12:46:28;;;;;;;1.70;1.60;;;19.90;59.10;;;;;;5083846;28;20566;-64
2022/07/16 12:48:58;;;;;;;2.03;1.90;;;20.10;57.20;;;;;;5083541;28;20044;-63
2022/07/16 12:51:28;;;;;;;2.20;2.00;;;20.10;56.30;;;;;;5081040;28;20052;-63
2022/07/16 12:53:58;;;;;;;2.13;1.92;;;20.10;56.30;;;;;;5067186;28;20203;-63
2022/07/16 12:59:15;;;;;;;2.10;2.00;;;20.10;55.60;;;;;;5083722;28;20055;-64
2022/07/16 13:01:43;;;;;;;2.60;1.60;;;20.10;55.30;;;;;;5087055;28;20044;-64
2022/07/16 13:04:11;;;;;;;2.10;1.90;;;20.00;54.90;;;;;;5087565;28;20039;-63
2022/07/16 13:06:39;;;;;;;2.28;1.90;;;20.00;54.60;;;;;;5088371;28;20480;-64